createdAt,value
2024-05-09T00:00:42.534Z,5.10
2024-05-09T00:03:11.423Z,5.10
2024-05-09T00:05:43.356Z,5.10
2024-05-09T00:08:11.407Z,5.10
2024-05-09T00:10:40.392Z,5.00
2024-05-09T00:13:10.006Z,5.00
2024-05-09T00:15:38.375Z,5.10
2024-05-09T00:18:09.434Z,4.70
2024-05-09T00:20:40.071Z,5.00
2024-05-09T00:23:13.883Z,5.00
2024-05-09T00:25:45.486Z,5.00
2024-05-09T00:28:13.561Z,5.00
2024-05-09T00:30:41.567Z,5.20
2024-05-09T00:33:10.787Z,5.20
2024-05-09T00:35:39.415Z,5.20
2024-05-09T00:38:07.256Z,5.10
2024-05-09T00:40:40.081Z,5.10
2024-05-09T00:43:14.556Z,5.00
2024-05-09T00:45:43.651Z,4.90
2024-05-09T00:48:15.208Z,4.90
2024-05-09T00:50:46.551Z,4.90
2024-05-09T00:53:15.936Z,4.90
2024-05-09T00:55:44.438Z,4.90
2024-05-09T00:58:14.852Z,5.00
2024-05-09T01:00:42.640Z,4.90
2024-05-09T01:03:12.516Z,5.00
2024-05-09T01:05:42.530Z,5.00
2024-05-09T01:08:11.086Z,5.00
2024-05-09T01:10:39.509Z,5.20
2024-05-09T01:13:07.990Z,5.10
2024-05-09T01:15:36.056Z,5.10
2024-05-09T01:18:15.394Z,5.30
2024-05-09T01:20:44.902Z,5.40
2024-05-09T01:23:15.623Z,5.30
2024-05-09T01:25:45.311Z,5.20
2024-05-09T01:28:13.578Z,5.10
2024-05-09T01:30:40.962Z,4.80
2024-05-09T01:33:10.508Z,5.00
2024-05-09T01:35:41.994Z,5.10
2024-05-09T01:38:13.892Z,5.10
2024-05-09T01:40:41.816Z,3.10
2024-05-09T01:43:10.580Z,5.00
2024-05-09T01:45:42.479Z,5.10
2024-05-09T01:48:11.272Z,5.10
2024-05-09T01:50:41.958Z,5.20
2024-05-09T01:53:12.600Z,5.10
2024-05-09T01:55:40.634Z,5.10
2024-05-09T01:58:09.000Z,5.10
2024-05-09T02:00:40.808Z,5.00
2024-05-09T02:03:13.964Z,4.90
2024-05-09T02:05:44.708Z,5.00
2024-05-09T02:08:17.745Z,4.90
2024-05-09T02:10:47.288Z,5.00
2024-05-09T02:13:18.164Z,4.90
2024-05-09T02:15:56.084Z,5.00
2024-05-09T02:18:26.279Z,5.00
2024-05-09T02:20:56.616Z,5.10
2024-05-09T02:23:24.159Z,5.10
2024-05-09T02:25:52.007Z,5.10
2024-05-09T02:28:21.340Z,5.10
2024-05-09T02:30:48.781Z,5.00
2024-05-09T02:33:16.308Z,4.90
2024-05-09T02:35:44.410Z,4.90
2024-05-09T02:38:12.409Z,4.90
2024-05-09T02:40:40.631Z,4.80
2024-05-09T02:43:10.200Z,4.90
2024-05-09T02:45:41.213Z,4.80
2024-05-09T02:48:13.414Z,4.90
2024-05-09T02:50:42.076Z,4.90
2024-05-09T02:53:10.911Z,5.00
2024-05-09T02:55:39.134Z,5.10
2024-05-09T02:58:10.280Z,5.10
2024-05-09T03:00:41.088Z,5.10
2024-05-09T03:03:13.230Z,5.00
2024-05-09T03:05:43.812Z,5.00
2024-05-09T03:08:11.428Z,5.00
2024-05-09T03:10:39.696Z,5.00
2024-05-09T03:13:13.371Z,5.00
2024-05-09T03:15:42.755Z,5.10
2024-05-09T03:18:11.109Z,5.00
2024-05-09T03:20:39.383Z,5.00
2024-05-09T03:23:09.551Z,5.10
2024-05-09T03:25:38.791Z,5.10
2024-05-09T03:28:06.611Z,5.10
2024-05-09T03:30:40.609Z,5.10
2024-05-09T03:33:13.244Z,5.10
2024-05-09T03:35:42.120Z,5.10
2024-05-09T03:38:09.938Z,5.10
2024-05-09T03:40:44.163Z,5.10
2024-05-09T03:43:12.672Z,5.00
2024-05-09T03:45:40.191Z,5.10
2024-05-09T03:48:08.469Z,5.00
2024-05-09T03:50:37.105Z,5.10
2024-05-09T03:53:05.427Z,5.10
2024-05-09T03:55:32.820Z,5.00
2024-05-09T03:58:00.274Z,5.10
2024-05-09T04:00:35.525Z,5.10
2024-05-09T04:03:11.346Z,5.10
2024-05-09T04:05:42.497Z,5.10
2024-05-09T04:08:14.210Z,5.20
2024-05-09T04:10:42.133Z,5.30
2024-05-09T04:13:10.625Z,5.30
2024-05-09T04:15:38.021Z,5.30
2024-05-09T04:18:05.804Z,5.20
2024-05-09T04:20:38.551Z,5.20
2024-05-09T04:23:13.108Z,5.30
2024-05-09T04:25:43.170Z,5.30
2024-05-09T04:28:10.812Z,5.30
2024-05-09T04:30:40.801Z,5.30
2024-05-09T04:33:13.947Z,5.40
2024-05-09T04:35:43.342Z,5.40
2024-05-09T04:38:15.426Z,5.50
2024-05-09T04:40:43.436Z,5.60
2024-05-09T04:43:16.246Z,5.70
2024-05-09T04:45:43.712Z,5.70
2024-05-09T04:48:11.373Z,5.70
2024-05-09T04:50:39.874Z,5.80
2024-05-09T04:53:10.079Z,5.80
2024-05-09T04:55:39.578Z,6.00
2024-05-09T04:58:11.876Z,6.00
2024-05-09T05:00:40.598Z,5.80
2024-05-09T05:03:13.444Z,5.70
2024-05-09T05:05:44.106Z,5.70
2024-05-09T05:08:17.241Z,5.70
2024-05-09T05:10:46.438Z,5.70
2024-05-09T05:13:20.262Z,5.80
2024-05-09T05:15:56.430Z,5.90
2024-05-09T05:18:26.054Z,5.90
2024-05-09T05:20:54.926Z,5.90
2024-05-09T05:23:23.361Z,5.90
2024-05-09T05:25:55.064Z,5.40
2024-05-09T05:28:23.101Z,6.00
2024-05-09T05:30:50.636Z,6.00
2024-05-09T05:33:19.287Z,6.00
2024-05-09T05:35:47.199Z,5.90
2024-05-09T05:38:14.754Z,6.10
2024-05-09T05:40:42.201Z,6.00
2024-05-09T05:43:16.017Z,5.90
2024-05-09T05:45:44.452Z,6.10
2024-05-09T05:48:13.889Z,6.10
2024-05-09T05:50:41.895Z,6.30
2024-05-09T05:53:10.513Z,6.30
2024-05-09T05:55:40.063Z,6.60
2024-05-09T05:58:11.402Z,6.70
2024-05-09T06:00:41.735Z,6.70
2024-05-09T06:03:11.031Z,6.70
2024-05-09T06:05:40.630Z,6.90
2024-05-09T06:08:08.921Z,6.80
2024-05-09T06:10:39.785Z,6.90
2024-05-09T06:13:11.608Z,6.70
2024-05-09T06:15:40.829Z,6.70
2024-05-09T06:18:10.201Z,6.30
2024-05-09T06:20:39.983Z,6.50
2024-05-09T06:23:09.498Z,6.60
2024-05-09T06:25:38.042Z,6.70
2024-05-09T06:28:05.998Z,6.70
2024-05-09T06:30:40.067Z,6.30
2024-05-09T06:33:12.161Z,6.40
2024-05-09T06:35:41.909Z,6.40
2024-05-09T06:38:09.832Z,6.70
2024-05-09T06:40:41.549Z,6.80
2024-05-09T06:43:19.008Z,6.90
2024-05-09T06:45:53.110Z,6.80
2024-05-09T06:48:22.173Z,6.90
2024-05-09T06:50:50.740Z,6.90
2024-05-09T06:53:21.708Z,7.00
2024-05-09T06:55:49.925Z,6.90
2024-05-09T06:58:17.441Z,6.90
2024-05-09T07:00:44.871Z,6.70
2024-05-09T07:03:18.256Z,7.00
2024-05-09T07:05:48.587Z,7.10
2024-05-09T07:08:17.432Z,7.10
2024-05-09T07:10:45.188Z,7.10
2024-05-09T07:13:15.138Z,6.90
2024-05-09T07:15:43.342Z,6.90
2024-05-09T07:18:11.483Z,7.10
2024-05-09T07:20:40.025Z,7.20
2024-05-09T07:23:11.793Z,7.10
2024-05-09T07:25:40.620Z,7.20
2024-05-09T07:28:26.437Z,7.10
2024-05-09T07:30:53.784Z,7.50
2024-05-09T07:33:23.472Z,7.30
2024-05-09T07:35:52.370Z,7.40
2024-05-09T07:38:19.981Z,7.30
2024-05-09T07:40:47.729Z,7.40
2024-05-09T07:43:16.195Z,7.30
2024-05-09T07:45:52.433Z,7.50
2024-05-09T07:52:37.871Z,8.00
2024-05-09T07:53:49.174Z,8.10
2024-05-09T07:56:22.479Z,8.30
2024-05-09T07:58:52.859Z,8.60
2024-05-09T08:01:21.052Z,9.00
2024-05-09T08:03:50.128Z,9.60
2024-05-09T08:06:17.851Z,9.30
2024-05-09T08:08:49.473Z,9.40
2024-05-09T08:11:17.081Z,9.30
2024-05-09T08:13:44.548Z,9.20
2024-05-09T08:16:13.691Z,9.30
2024-05-09T08:18:42.219Z,9.30
2024-05-09T08:21:09.725Z,9.80
2024-05-09T08:23:37.039Z,10.10
2024-05-09T08:26:04.586Z,10.10
2024-05-09T08:28:31.927Z,9.80
2024-05-09T08:31:00.047Z,9.40
2024-05-09T08:33:30.459Z,9.20
2024-05-09T08:35:58.259Z,8.80
2024-05-09T08:38:25.583Z,9.00
2024-05-09T08:40:53.139Z,9.10
2024-05-09T08:43:20.796Z,9.20
2024-05-09T08:45:50.208Z,9.20
2024-05-09T08:48:19.928Z,9.40
2024-05-09T08:50:49.456Z,9.20
2024-05-09T08:53:17.474Z,9.20
2024-05-09T08:55:46.319Z,9.20
2024-05-09T08:58:18.275Z,9.40
2024-05-09T09:00:46.964Z,9.10
2024-05-09T09:03:26.936Z,9.00
2024-05-09T09:06:15.948Z,9.50
2024-05-09T09:08:46.554Z,9.60
2024-05-09T09:11:13.975Z,9.30
2024-05-09T09:13:41.514Z,9.60
2024-05-09T09:16:09.058Z,9.60
2024-05-09T09:18:36.749Z,9.80
2024-05-09T09:21:04.445Z,10.00
2024-05-09T09:23:31.923Z,9.90
2024-05-09T09:26:02.450Z,9.90
2024-05-09T09:28:30.229Z,9.90
2024-05-09T09:31:04.794Z,9.90
2024-05-09T09:33:33.097Z,9.70
2024-05-09T09:36:06.278Z,10.00
2024-05-09T09:38:37.887Z,10.10
2024-05-09T09:41:08.376Z,10.00
2024-05-09T09:43:37.231Z,10.20
2024-05-09T09:46:08.678Z,9.70
2024-05-09T09:48:40.015Z,9.60
2024-05-09T09:51:08.363Z,9.60
2024-05-09T09:53:38.451Z,9.50
2024-05-09T09:56:08.027Z,9.30
2024-05-09T09:58:36.375Z,9.10
2024-05-09T10:01:03.827Z,9.20
2024-05-09T10:03:31.962Z,9.30
2024-05-09T10:06:00.199Z,9.50
2024-05-09T10:08:28.579Z,9.50
2024-05-09T10:10:55.995Z,9.30
2024-05-09T10:13:34.023Z,9.30
2024-05-09T10:16:10.802Z,9.20
2024-05-09T10:18:41.518Z,9.30
2024-05-09T10:21:18.659Z,9.30
2024-05-09T10:24:00.837Z,9.50
2024-05-09T10:26:38.345Z,9.60
2024-05-09T10:29:16.204Z,9.40
2024-05-09T10:31:45.903Z,9.20
2024-05-09T10:34:21.662Z,9.40
2024-05-09T10:37:02.830Z,9.40
2024-05-09T10:39:39.062Z,9.30
2024-05-09T10:42:10.292Z,9.40
2024-05-09T10:44:38.564Z,9.50
2024-05-09T10:47:06.144Z,9.60
2024-05-09T10:49:33.616Z,9.60
2024-05-09T10:52:04.289Z,9.80
2024-05-09T10:54:41.071Z,9.90
2024-05-09T10:57:08.599Z,9.90
2024-05-09T10:59:37.404Z,10.00
2024-05-09T11:02:05.963Z,10.20
2024-05-09T11:04:38.465Z,10.10
2024-05-09T11:07:14.910Z,10.20
2024-05-09T11:09:43.295Z,10.30
2024-05-09T11:12:11.161Z,10.40
2024-05-09T11:14:38.760Z,10.50
2024-05-09T11:17:07.578Z,10.60
2024-05-09T11:19:42.177Z,10.40
2024-05-09T11:22:09.932Z,10.60
2024-05-09T11:24:37.557Z,10.70
2024-05-09T11:27:06.158Z,10.60
2024-05-09T11:29:38.589Z,10.40
2024-05-09T11:32:08.652Z,10.30
2024-05-09T11:34:36.136Z,10.20
2024-05-09T11:37:04.138Z,10.00
2024-05-09T11:39:32.041Z,10.20
2024-05-09T11:41:59.433Z,10.20
2024-05-09T11:44:27.579Z,10.10
2024-05-09T11:46:55.360Z,10.40
2024-05-09T11:49:25.451Z,10.70
2024-05-09T11:51:54.234Z,10.90
2024-05-09T11:54:21.558Z,10.90
2024-05-09T11:56:49.102Z,11.00
2024-05-09T11:59:16.481Z,11.10
2024-05-09T12:01:43.990Z,11.00
2024-05-09T12:04:11.624Z,11.10
2024-05-09T12:06:39.773Z,10.80
2024-05-09T12:09:07.154Z,10.60
2024-05-09T12:11:34.657Z,10.80
2024-05-09T12:14:02.123Z,10.80
2024-05-09T12:16:29.958Z,10.80
2024-05-09T12:18:57.491Z,10.90
2024-05-09T12:21:25.057Z,10.90
2024-05-09T12:23:52.465Z,11.00
2024-05-09T12:26:19.994Z,10.90
2024-05-09T12:28:47.916Z,10.80
2024-05-09T12:31:15.573Z,10.60
2024-05-09T12:33:43.086Z,10.60
2024-05-09T12:36:11.110Z,10.70
2024-05-09T12:38:38.475Z,10.70
2024-05-09T12:41:05.995Z,10.70
2024-05-09T12:43:33.415Z,10.70
2024-05-09T12:46:01.216Z,10.60
2024-05-09T12:48:28.940Z,10.70
2024-05-09T12:50:57.904Z,10.70
2024-05-09T12:53:25.405Z,10.50
2024-05-09T12:55:57.053Z,10.50
2024-05-09T12:58:28.010Z,10.50
2024-05-09T13:00:55.759Z,10.50
2024-05-09T13:03:23.753Z,10.50
2024-05-09T13:05:51.921Z,10.60
2024-05-09T13:08:20.441Z,10.60
2024-05-09T13:10:48.111Z,10.60
2024-05-09T13:13:15.769Z,10.70
2024-05-09T13:15:43.193Z,10.70
2024-05-09T13:18:10.664Z,10.70
2024-05-09T13:20:37.958Z,10.70
2024-05-09T13:23:07.672Z,10.80
2024-05-09T13:25:38.873Z,11.10
2024-05-09T13:28:07.516Z,10.90
2024-05-09T13:30:40.402Z,10.90
2024-05-09T13:33:14.347Z,11.10
2024-05-09T13:35:47.114Z,11.30
2024-05-09T13:38:19.433Z,11.30
2024-05-09T13:40:48.124Z,11.10
2024-05-09T13:43:16.134Z,11.00
2024-05-09T13:45:44.023Z,11.00
2024-05-09T13:48:11.736Z,10.80
2024-05-09T13:50:39.543Z,10.90
2024-05-09T13:53:08.229Z,11.00
2024-05-09T13:55:39.805Z,11.00
2024-05-09T13:58:08.715Z,10.90
2024-05-09T14:00:45.125Z,11.00
2024-05-09T14:03:18.307Z,11.00
2024-05-09T14:05:47.848Z,11.00
2024-05-09T14:08:17.888Z,10.80
2024-05-09T14:10:51.313Z,10.90
2024-05-09T14:13:19.648Z,11.00
2024-05-09T14:15:47.543Z,11.10
2024-05-09T14:18:15.327Z,11.10
2024-05-09T14:20:43.227Z,11.30
2024-05-09T14:23:11.117Z,11.40
2024-05-09T14:25:42.554Z,11.30
2024-05-09T14:28:11.647Z,11.20
2024-05-09T14:30:39.846Z,11.40
2024-05-09T14:33:08.881Z,11.50
2024-05-09T14:35:38.621Z,11.50
2024-05-09T14:38:08.022Z,11.40
2024-05-09T14:40:41.893Z,11.50
2024-05-09T14:43:15.907Z,11.50
2024-05-09T14:45:44.349Z,11.40
2024-05-09T14:48:14.946Z,11.60
2024-05-09T14:50:42.851Z,11.50
2024-05-09T14:53:11.597Z,11.50
2024-05-09T14:55:41.522Z,11.40
2024-05-09T14:58:11.332Z,11.40
2024-05-09T15:00:46.954Z,11.40
2024-05-09T15:03:21.690Z,11.50
2024-05-09T15:05:50.340Z,11.30
2024-05-09T15:08:19.189Z,11.30
2024-05-09T15:10:47.321Z,11.40
2024-05-09T15:13:16.716Z,11.50
2024-05-09T15:15:45.151Z,11.60
2024-05-09T15:18:13.890Z,11.70
2024-05-09T15:20:42.143Z,11.70
2024-05-09T15:23:09.766Z,11.70
2024-05-09T15:25:37.360Z,11.70
2024-05-09T15:28:07.796Z,11.60
2024-05-09T15:30:35.792Z,11.60
2024-05-09T15:33:04.114Z,11.50
2024-05-09T15:35:32.202Z,11.50
2024-05-09T15:38:00.503Z,11.20
2024-05-09T15:40:36.215Z,11.20
2024-05-09T15:43:09.346Z,11.20
2024-05-09T15:45:38.440Z,11.10
2024-05-09T15:48:06.887Z,11.20
2024-05-09T15:50:39.327Z,11.20
2024-05-09T15:53:11.530Z,11.20
2024-05-09T15:55:39.780Z,11.20
2024-05-09T15:58:07.800Z,11.20
2024-05-09T16:00:39.705Z,11.10
2024-05-09T16:03:10.950Z,11.20
2024-05-09T16:05:39.353Z,11.10
2024-05-09T16:08:07.612Z,11.10
2024-05-09T16:10:35.704Z,11.10
2024-05-09T16:13:04.087Z,11.10
2024-05-09T16:15:32.130Z,11.10
2024-05-09T16:18:00.648Z,11.00
2024-05-09T16:20:37.476Z,11.10
2024-05-09T16:23:08.835Z,11.00
2024-05-09T16:25:36.922Z,11.10
2024-05-09T16:28:08.952Z,11.10
2024-05-09T16:30:41.702Z,11.10
2024-05-09T16:33:37.287Z,11.00
2024-05-09T16:36:05.203Z,10.90
2024-05-09T16:38:32.469Z,11.00
2024-05-09T16:40:59.933Z,11.00
2024-05-09T16:43:27.335Z,11.00
2024-05-09T16:45:54.844Z,11.00
2024-05-09T16:48:22.250Z,10.90
2024-05-09T16:50:49.806Z,10.80
2024-05-09T16:53:17.179Z,10.60
2024-05-09T16:55:44.618Z,10.50
2024-05-09T16:58:12.631Z,10.40
2024-05-09T17:00:43.327Z,10.30
2024-05-09T17:03:14.862Z,10.30
2024-05-09T17:05:44.069Z,10.20
2024-05-09T17:08:12.101Z,10.20
2024-05-09T17:10:39.641Z,10.20
2024-05-09T17:13:08.126Z,10.10
2024-05-09T17:15:37.386Z,10.10
2024-05-09T17:18:07.386Z,10.00
2024-05-09T17:20:39.462Z,9.80
2024-05-09T17:23:14.183Z,9.70
2024-05-09T17:25:42.584Z,9.70
2024-05-09T17:28:11.217Z,9.60
2024-05-09T17:30:40.935Z,9.60
2024-05-09T17:33:11.312Z,9.70
2024-05-09T17:35:39.728Z,9.70
2024-05-09T17:38:07.444Z,9.60
2024-05-09T17:40:37.188Z,9.60
2024-05-09T17:43:08.387Z,9.50
2024-05-09T17:45:39.170Z,9.50
2024-05-09T17:48:08.258Z,9.50
2024-05-09T17:50:37.605Z,9.50
2024-05-09T17:53:06.534Z,9.50
2024-05-09T17:55:35.015Z,9.50
2024-05-09T17:58:03.375Z,9.40
2024-05-09T18:00:37.919Z,9.40
2024-05-09T18:03:12.123Z,9.40
2024-05-09T18:05:41.586Z,9.40
2024-05-09T18:08:09.518Z,9.40
2024-05-09T18:10:39.708Z,9.40
2024-05-09T18:13:12.359Z,9.50
2024-05-09T18:15:40.234Z,9.40
2024-05-09T18:18:09.292Z,9.60
2024-05-09T18:20:42.943Z,9.50
2024-05-09T18:23:15.846Z,9.40
2024-05-09T18:25:45.256Z,9.40
2024-05-09T18:28:13.183Z,9.40
2024-05-09T18:30:41.213Z,9.50
2024-05-09T18:33:11.235Z,9.40
2024-05-09T18:35:41.556Z,9.40
2024-05-09T18:38:09.811Z,9.40
2024-05-09T18:40:38.809Z,9.40
2024-05-09T18:43:08.963Z,9.40
2024-05-09T18:45:38.220Z,9.40
2024-05-09T18:48:07.831Z,9.30
2024-05-09T18:50:39.328Z,9.40
2024-05-09T18:53:13.274Z,9.40
2024-05-09T18:55:44.395Z,9.30
2024-05-09T18:58:12.249Z,9.30
2024-05-09T19:00:42.729Z,9.30
2024-05-09T19:03:14.258Z,9.30
2024-05-09T19:05:43.963Z,8.40
2024-05-09T19:08:12.808Z,9.30
2024-05-09T19:10:40.841Z,9.40
2024-05-09T19:16:12.015Z,9.30
2024-05-09T19:18:39.496Z,9.30
2024-05-09T19:21:22.396Z,9.30
2024-05-09T19:23:52.342Z,9.20
2024-05-09T19:26:20.026Z,9.20
2024-05-09T19:28:47.372Z,9.20
2024-05-09T19:31:14.808Z,9.30
2024-05-09T19:33:42.308Z,9.40
2024-05-09T19:36:10.079Z,9.40
2024-05-09T19:38:38.027Z,9.40
2024-05-09T19:41:05.483Z,9.40
2024-05-09T19:43:35.881Z,9.30
2024-05-09T19:46:03.670Z,9.30
2024-05-09T19:48:31.334Z,9.30
2024-05-09T19:50:58.939Z,9.30
2024-05-09T19:53:26.311Z,9.30
2024-05-09T19:55:53.748Z,9.40
2024-05-09T19:58:21.146Z,9.40
2024-05-09T20:00:49.138Z,9.40
2024-05-09T20:03:16.740Z,9.40
2024-05-09T20:05:46.733Z,9.40
2024-05-09T20:08:14.779Z,9.40
2024-05-09T20:10:42.363Z,9.50
2024-05-09T20:13:09.874Z,9.50
2024-05-09T20:15:40.188Z,9.50
2024-05-09T20:18:07.889Z,9.50
2024-05-09T20:20:39.696Z,9.50
2024-05-09T20:23:11.464Z,9.60
2024-05-09T20:25:39.150Z,9.60
2024-05-09T20:28:06.927Z,9.60
2024-05-09T20:30:35.684Z,9.60
2024-05-09T20:33:05.324Z,9.60
2024-05-09T20:35:34.719Z,9.60
2024-05-09T20:38:03.403Z,9.60
2024-05-09T20:40:35.640Z,9.60
2024-05-09T20:43:07.664Z,9.60
2024-05-09T20:45:35.800Z,9.60
2024-05-09T20:48:03.741Z,9.60
2024-05-09T20:50:38.025Z,9.70
2024-05-09T20:53:13.650Z,9.20
2024-05-09T20:55:43.010Z,9.70
2024-05-09T20:58:12.262Z,9.70
2024-05-09T21:00:43.401Z,9.80
2024-05-09T21:03:14.898Z,9.80
2024-05-09T21:05:43.774Z,9.90
2024-05-09T21:08:11.319Z,9.90
2024-05-09T21:10:38.876Z,10.00
2024-05-09T21:13:07.271Z,9.90
2024-05-09T21:15:35.754Z,10.00
2024-05-09T21:18:14.046Z,10.00
2024-05-09T21:20:41.676Z,10.00
2024-05-09T21:23:11.546Z,10.00
2024-05-09T21:25:41.790Z,10.00
2024-05-09T21:28:19.650Z,10.00
2024-05-09T21:30:54.274Z,10.10
2024-05-09T21:33:21.918Z,10.10
2024-05-09T21:35:50.220Z,10.10
2024-05-09T21:38:17.826Z,10.20
2024-05-09T21:40:45.615Z,10.10
2024-05-09T21:43:13.396Z,10.10
2024-05-09T21:45:40.856Z,10.20
2024-05-09T21:48:08.826Z,10.20
2024-05-09T21:50:40.772Z,10.20
2024-05-09T21:53:11.559Z,10.20
2024-05-09T21:55:39.419Z,10.20
2024-05-09T21:58:07.009Z,10.20
2024-05-09T22:00:38.137Z,10.20
2024-05-09T22:03:10.975Z,10.20
2024-05-09T22:05:42.463Z,10.20
2024-05-09T22:08:10.922Z,10.20
2024-05-09T22:10:38.663Z,10.20
2024-05-09T22:13:06.988Z,10.20
2024-05-09T22:15:40.023Z,10.20
2024-05-09T22:18:09.874Z,10.20
2024-05-09T22:20:44.684Z,10.20
2024-05-09T22:23:13.662Z,10.30
2024-05-09T22:25:41.221Z,10.30
2024-05-09T22:28:09.134Z,10.20
2024-05-09T22:30:39.358Z,10.30
2024-05-09T22:33:09.701Z,10.30
2024-05-09T22:35:38.748Z,10.30
2024-05-09T22:38:06.471Z,10.30
2024-05-09T22:40:43.391Z,10.30
2024-05-09T22:43:21.118Z,10.30
2024-05-09T22:45:50.565Z,10.30
2024-05-09T22:48:18.510Z,10.30
2024-05-09T22:50:46.140Z,10.30
2024-05-09T22:53:13.437Z,10.30
2024-05-09T22:55:40.860Z,10.20
2024-05-09T22:58:08.263Z,10.30
2024-05-09T23:00:35.803Z,10.30
2024-05-09T23:03:03.698Z,10.20
2024-05-09T23:05:32.879Z,10.20
2024-05-09T23:08:01.853Z,10.10
2024-05-09T23:10:35.689Z,10.10
2024-05-09T23:13:07.458Z,10.10
2024-05-09T23:15:38.604Z,10.10
2024-05-09T23:18:06.754Z,10.10
2024-05-09T23:20:38.468Z,10.10
2024-05-09T23:23:08.510Z,10.10
2024-05-09T23:25:37.657Z,10.00
2024-05-09T23:28:05.685Z,10.00
2024-05-09T23:30:38.183Z,10.00
2024-05-09T23:33:10.252Z,10.00
2024-05-09T23:35:38.047Z,9.90
2024-05-09T23:38:05.620Z,9.90
2024-05-09T23:40:39.282Z,9.90
2024-05-09T23:43:10.032Z,9.80
2024-05-09T23:45:37.741Z,9.80
2024-05-09T23:48:06.372Z,9.80
2024-05-09T23:50:36.906Z,9.80
2024-05-09T23:53:07.994Z,9.70
2024-05-09T23:55:36.848Z,9.70
2024-05-09T23:58:04.457Z,9.70
